createdAt,value
2023-04-21T00:01:12.707Z,87.64
2023-04-21T00:03:39.768Z,87.70
2023-04-21T00:06:06.523Z,87.93
2023-04-21T00:08:33.388Z,87.55
2023-04-21T00:10:59.879Z,87.79
2023-04-21T00:13:26.297Z,88.03
2023-04-21T00:15:52.754Z,87.84
2023-04-21T00:18:19.633Z,87.79
2023-04-21T00:20:46.066Z,87.82
2023-04-21T00:23:14.190Z,88.08
2023-04-21T00:25:40.618Z,88.06
2023-04-21T00:28:07.001Z,87.77
2023-04-21T00:30:33.454Z,88.09
2023-04-21T00:33:00.002Z,87.95
2023-04-21T00:35:26.738Z,88.16
2023-04-21T00:37:53.134Z,88.11
2023-04-21T00:40:20.403Z,87.95
2023-04-21T00:42:46.781Z,88.00
2023-04-21T00:45:15.308Z,88.13
2023-04-21T00:47:42.764Z,88.02
2023-04-21T00:50:10.670Z,88.07
2023-04-21T00:52:39.561Z,88.17
2023-04-21T00:55:06.944Z,88.06
2023-04-21T00:57:35.788Z,88.16
2023-04-21T01:00:03.504Z,88.21
2023-04-21T01:02:30.005Z,88.20
2023-04-21T01:04:56.507Z,88.35
2023-04-21T01:07:25.574Z,88.37
2023-04-21T01:09:52.024Z,88.30
2023-04-21T01:12:19.160Z,88.43
2023-04-21T01:14:45.849Z,88.42
2023-04-21T01:17:12.367Z,88.44
2023-04-21T01:19:41.884Z,88.37
2023-04-21T01:22:12.839Z,88.46
2023-04-21T01:24:40.840Z,88.38
2023-04-21T01:27:15.666Z,88.63
2023-04-21T01:29:43.278Z,88.73
2023-04-21T01:32:12.975Z,88.53
2023-04-21T01:34:41.105Z,88.79
2023-04-21T01:37:09.703Z,88.88
2023-04-21T01:39:46.242Z,88.85
2023-04-21T01:42:13.040Z,88.78
2023-04-21T01:44:39.984Z,88.79
2023-04-21T01:47:07.268Z,88.75
2023-04-21T01:49:33.772Z,88.77
2023-04-21T01:52:00.224Z,89.02
2023-04-21T01:54:26.754Z,88.77
2023-04-21T01:56:53.601Z,88.71
2023-04-21T01:59:20.279Z,89.02
2023-04-21T02:01:46.907Z,88.78
2023-04-21T02:04:13.582Z,88.66
2023-04-21T02:06:40.535Z,88.85
2023-04-21T02:09:10.259Z,88.80
2023-04-21T02:11:36.863Z,89.00
2023-04-21T02:14:03.454Z,89.17
2023-04-21T02:16:30.917Z,88.77
2023-04-21T02:18:57.887Z,89.20
2023-04-21T02:21:24.907Z,88.94
2023-04-21T02:23:52.031Z,88.88
2023-04-21T02:26:19.526Z,89.08
2023-04-21T02:28:46.109Z,89.04
2023-04-21T02:31:12.684Z,89.03
2023-04-21T02:33:39.091Z,88.91
2023-04-21T02:36:05.978Z,89.09
2023-04-21T02:38:32.434Z,89.06
2023-04-21T02:40:58.937Z,89.43
2023-04-21T02:43:25.471Z,89.00
2023-04-21T02:45:52.005Z,89.23
2023-04-21T02:48:23.136Z,89.29
2023-04-21T02:50:50.754Z,89.11
2023-04-21T02:53:17.257Z,89.31
2023-04-21T02:55:44.000Z,89.46
2023-04-21T02:58:11.008Z,89.27
2023-04-21T03:00:37.677Z,89.10
2023-04-21T03:03:04.586Z,89.31
2023-04-21T03:05:31.198Z,89.35
2023-04-21T03:07:57.570Z,89.50
2023-04-21T03:10:24.223Z,89.43
2023-04-21T03:12:50.577Z,89.59
2023-04-21T03:15:17.098Z,89.42
2023-04-21T03:17:43.720Z,89.67
2023-04-21T03:20:11.493Z,89.22
2023-04-21T03:22:38.795Z,89.37
2023-04-21T03:25:07.261Z,89.29
2023-04-21T03:27:34.593Z,89.55
2023-04-21T03:30:01.161Z,89.52
2023-04-21T03:32:27.699Z,89.61
2023-04-21T03:34:54.347Z,89.47
2023-04-21T03:37:20.830Z,89.67
2023-04-21T03:39:47.278Z,89.48
2023-04-21T03:42:13.715Z,89.86
2023-04-21T03:44:40.071Z,89.79
2023-04-21T03:47:06.601Z,89.98
2023-04-21T03:49:35.788Z,89.74
2023-04-21T03:52:02.422Z,89.98
2023-04-21T03:54:28.898Z,89.70
2023-04-21T03:56:55.376Z,89.85
2023-04-21T03:59:21.971Z,89.64
2023-04-21T04:01:48.456Z,89.57
2023-04-21T04:04:15.377Z,89.83
2023-04-21T04:06:42.042Z,89.62
2023-04-21T04:09:08.995Z,89.71
2023-04-21T04:11:35.582Z,90.06
2023-04-21T04:14:01.961Z,90.04
2023-04-21T04:16:29.090Z,89.97
2023-04-21T04:18:55.920Z,89.66
2023-04-21T04:21:22.314Z,89.82
2023-04-21T04:23:51.595Z,89.93
2023-04-21T04:26:18.734Z,89.99
2023-04-21T04:28:45.861Z,89.87
2023-04-21T04:31:13.730Z,89.91
2023-04-21T04:33:44.390Z,90.05
2023-04-21T04:36:12.035Z,89.79
2023-04-21T04:38:38.650Z,90.10
2023-04-21T04:41:06.264Z,90.14
2023-04-21T04:43:33.588Z,90.19
2023-04-21T04:46:00.220Z,90.07
2023-04-21T04:48:26.665Z,90.02
2023-04-21T04:50:53.178Z,90.01
2023-04-21T04:53:20.344Z,90.51
2023-04-21T04:55:47.605Z,90.22
2023-04-21T04:58:14.331Z,89.90
2023-04-21T05:00:40.924Z,89.74
2023-04-21T05:03:07.436Z,89.51
2023-04-21T05:05:34.002Z,90.03
2023-04-21T05:08:00.430Z,90.15
2023-04-21T05:10:26.884Z,90.07
2023-04-21T05:12:53.352Z,90.15
2023-04-21T05:15:19.711Z,90.05
2023-04-21T05:17:46.201Z,89.93
2023-04-21T05:20:12.706Z,89.76
2023-04-21T05:22:39.341Z,89.99
2023-04-21T05:25:06.790Z,90.13
2023-04-21T05:27:34.088Z,89.89
2023-04-21T05:30:00.807Z,89.83
2023-04-21T05:32:27.590Z,89.70
2023-04-21T05:34:54.073Z,89.87
2023-04-21T05:37:20.478Z,89.82
2023-04-21T05:39:46.970Z,89.96
2023-04-21T05:42:15.301Z,90.13
2023-04-21T05:44:41.911Z,89.87
2023-04-21T05:47:09.196Z,90.04
2023-04-21T05:49:35.680Z,89.89
2023-04-21T05:52:02.111Z,90.15
2023-04-21T05:54:28.513Z,89.86
2023-04-21T05:56:54.987Z,89.89
2023-04-21T05:59:23.128Z,90.14
2023-04-21T06:01:50.077Z,90.13
2023-04-21T06:04:16.779Z,90.06
2023-04-21T06:06:44.374Z,89.99
2023-04-21T06:09:12.357Z,89.57
2023-04-21T06:11:38.821Z,89.48
2023-04-21T06:14:05.350Z,89.68
2023-04-21T06:16:34.122Z,89.63
2023-04-21T06:19:01.115Z,89.54
2023-04-21T06:21:27.921Z,89.83
2023-04-21T06:23:54.436Z,89.49
2023-04-21T06:26:21.106Z,89.77
2023-04-21T06:28:47.638Z,89.78
2023-04-21T06:31:15.616Z,89.88
2023-04-21T06:33:42.353Z,89.63
2023-04-21T06:36:08.797Z,89.37
2023-04-21T06:38:35.400Z,89.33
2023-04-21T06:41:02.567Z,89.53
2023-04-21T06:43:29.038Z,89.55
2023-04-21T06:45:55.508Z,88.98
2023-04-21T06:48:21.978Z,88.21
2023-04-21T06:50:48.513Z,87.86
2023-04-21T06:53:14.933Z,88.00
2023-04-21T06:55:42.256Z,88.14
2023-04-21T06:58:08.759Z,88.02
2023-04-21T07:00:35.515Z,88.00
2023-04-21T07:03:02.068Z,88.07
2023-04-21T07:05:28.930Z,87.73
2023-04-21T07:07:59.666Z,87.40
2023-04-21T07:10:27.204Z,87.80
2023-04-21T07:12:54.184Z,87.72
2023-04-21T07:15:21.009Z,87.95
2023-04-21T07:17:47.589Z,88.17
2023-04-21T07:20:14.208Z,88.13
2023-04-21T07:22:40.742Z,88.37
2023-04-21T07:25:09.339Z,88.48
2023-04-21T07:27:38.733Z,88.42
2023-04-21T07:30:05.958Z,88.18
2023-04-21T07:32:33.788Z,88.10
2023-04-21T07:35:02.008Z,87.97
2023-04-21T07:37:28.885Z,87.62
2023-04-21T07:39:55.337Z,87.83
2023-04-21T07:42:22.449Z,87.57
2023-04-21T07:44:49.109Z,87.72
2023-04-21T07:47:15.688Z,87.50
2023-04-21T07:49:42.113Z,87.53
2023-04-21T07:52:08.853Z,87.53
2023-04-21T07:54:35.326Z,87.39
2023-04-21T07:57:04.396Z,87.22
2023-04-21T07:59:30.870Z,86.92
2023-04-21T08:01:58.404Z,86.74
2023-04-21T08:04:25.557Z,86.62
2023-04-21T08:06:53.449Z,86.83
2023-04-21T08:09:20.332Z,86.82
2023-04-21T08:11:47.495Z,86.68
2023-04-21T08:14:14.178Z,86.56
2023-04-21T08:16:42.162Z,86.85
2023-04-21T08:19:09.721Z,86.66
2023-04-21T08:21:36.450Z,86.66
2023-04-21T08:24:03.140Z,86.58
2023-04-21T08:26:30.253Z,86.81
2023-04-21T08:28:57.319Z,86.58
2023-04-21T08:31:23.982Z,86.54
2023-04-21T08:34:01.332Z,86.35
2023-04-21T08:36:30.384Z,86.23
2023-04-21T08:38:57.597Z,85.98
2023-04-21T08:41:24.874Z,85.51
2023-04-21T08:43:51.612Z,85.33
2023-04-21T08:46:19.394Z,85.18
2023-04-21T08:48:47.031Z,85.01
2023-04-21T08:51:18.516Z,84.56
2023-04-21T08:53:46.290Z,84.22
2023-04-21T08:56:12.713Z,83.84
2023-04-21T08:58:39.238Z,83.74
2023-04-21T09:01:05.898Z,83.70
2023-04-21T09:03:32.617Z,83.48
2023-04-21T09:06:05.679Z,83.30
2023-04-21T09:08:34.436Z,83.01
2023-04-21T09:11:01.744Z,82.93
2023-04-21T09:13:37.986Z,82.76
2023-04-21T09:16:14.758Z,82.21
2023-04-21T09:18:44.084Z,82.07
2023-04-21T09:21:18.654Z,81.68
2023-04-21T09:23:52.804Z,81.74
2023-04-21T09:26:22.969Z,81.77
2023-04-21T09:28:51.572Z,81.83
2023-04-21T09:31:24.927Z,81.47
2023-04-21T09:33:59.570Z,81.17
2023-04-21T09:36:31.036Z,80.51
2023-04-21T09:39:25.228Z,80.08
2023-04-21T09:41:46.469Z,79.72
2023-04-21T09:44:13.125Z,79.61
2023-04-21T09:46:44.253Z,79.47
2023-04-21T09:49:13.676Z,79.34
2023-04-21T09:52:05.945Z,79.19
2023-04-21T09:54:35.304Z,79.13
2023-04-21T09:57:04.362Z,79.20
2023-04-21T09:59:39.033Z,78.61
2023-04-21T10:02:07.504Z,78.13
2023-04-21T10:04:36.439Z,77.79
2023-04-21T10:07:03.570Z,77.58
2023-04-21T10:09:47.474Z,77.65
2023-04-21T10:12:15.320Z,77.57
2023-04-21T10:14:41.976Z,77.33
2023-04-21T10:17:10.107Z,76.95
2023-04-21T10:19:41.546Z,76.76
2023-04-21T10:22:09.661Z,76.33
2023-04-21T10:24:40.346Z,75.90
2023-04-21T10:27:10.749Z,75.61
2023-04-21T10:29:52.560Z,75.22
2023-04-21T10:32:42.344Z,75.04
2023-04-21T10:35:17.319Z,74.73
2023-04-21T10:37:47.822Z,74.75
2023-04-21T10:40:43.688Z,74.11
2023-04-21T10:43:50.665Z,73.99
2023-04-21T10:46:36.604Z,73.52
2023-04-21T10:49:21.179Z,73.04
2023-04-21T10:52:01.509Z,72.73
2023-04-21T10:54:45.921Z,72.81
2023-04-21T10:57:23.180Z,72.18
2023-04-21T10:59:49.757Z,71.96
2023-04-21T11:02:19.139Z,71.72
2023-04-21T11:04:50.914Z,71.48
2023-04-21T11:07:24.348Z,71.49
2023-04-21T11:10:02.328Z,70.91
2023-04-21T11:12:40.027Z,70.83
2023-04-21T11:15:10.378Z,70.75
2023-04-21T11:17:39.734Z,70.71
2023-04-21T11:20:07.371Z,70.87
2023-04-21T11:22:34.194Z,70.66
2023-04-21T11:25:00.855Z,69.65
2023-04-21T11:27:29.285Z,68.96
2023-04-21T11:29:57.155Z,69.01
2023-04-21T11:32:24.053Z,68.61
2023-04-21T11:34:50.985Z,67.95
2023-04-21T11:37:23.249Z,67.64
2023-04-21T11:39:50.158Z,67.02
2023-04-21T11:42:22.787Z,66.72
2023-04-21T11:44:49.405Z,66.55
2023-04-21T11:47:20.995Z,66.18
2023-04-21T11:49:51.476Z,65.80
2023-04-21T11:52:41.222Z,65.94
2023-04-21T11:55:17.891Z,65.83
2023-04-21T11:57:44.577Z,65.55
2023-04-21T12:00:16.300Z,65.28
2023-04-21T12:02:43.773Z,64.72
2023-04-21T12:05:12.564Z,64.52
2023-04-21T12:07:42.511Z,64.01
2023-04-21T12:10:29.364Z,63.74
2023-04-21T12:12:57.493Z,63.38
2023-04-21T12:15:24.124Z,63.12
2023-04-21T12:17:53.381Z,62.80
2023-04-21T12:20:24.119Z,62.31
2023-04-21T12:22:51.181Z,61.85
2023-04-21T12:25:17.711Z,61.87
2023-04-21T12:27:57.752Z,61.68
2023-04-21T12:30:24.700Z,61.55
2023-04-21T12:32:52.267Z,61.47
2023-04-21T12:35:18.906Z,60.66
2023-04-21T12:37:45.721Z,60.85
2023-04-21T12:40:12.241Z,60.47
2023-04-21T12:42:38.733Z,60.08
2023-04-21T12:45:06.489Z,59.78
2023-04-21T12:47:33.156Z,59.54
2023-04-21T12:49:59.631Z,59.35
2023-04-21T12:52:26.888Z,58.85
2023-04-21T12:54:53.273Z,58.81
2023-04-21T12:57:21.013Z,58.28
2023-04-21T12:59:48.160Z,58.11
2023-04-21T13:02:14.787Z,57.91
2023-04-21T13:04:42.472Z,57.88
2023-04-21T13:07:09.506Z,57.66
2023-04-21T13:09:36.048Z,57.30
2023-04-21T13:12:02.546Z,57.20
2023-04-21T13:14:29.166Z,57.25
2023-04-21T13:16:55.976Z,56.70
2023-04-21T13:19:22.488Z,56.59
2023-04-21T13:21:48.916Z,56.22
2023-04-21T13:24:16.605Z,56.08
2023-04-21T13:26:43.143Z,56.02
2023-04-21T13:29:10.271Z,55.78
2023-04-21T13:31:36.811Z,55.91
2023-04-21T13:34:03.533Z,55.50
2023-04-21T13:36:30.137Z,55.43
2023-04-21T13:38:56.650Z,55.05
2023-04-21T13:41:23.130Z,54.91
2023-04-21T13:43:50.099Z,54.59
2023-04-21T13:46:16.600Z,54.12
2023-04-21T13:48:45.760Z,54.02
2023-04-21T13:51:12.228Z,53.86
2023-04-21T13:53:38.647Z,53.34
2023-04-21T13:56:05.310Z,53.79
2023-04-21T13:58:31.806Z,53.63
2023-04-21T14:00:59.932Z,53.26
2023-04-21T14:03:26.605Z,53.08
2023-04-21T14:05:53.387Z,52.88
2023-04-21T14:08:20.611Z,52.64
2023-04-21T14:10:47.115Z,52.64
2023-04-21T14:13:26.921Z,52.70
2023-04-21T14:16:00.458Z,52.46
2023-04-21T14:18:27.050Z,52.21
2023-04-21T14:20:53.523Z,51.96
2023-04-21T14:23:19.931Z,51.65
2023-04-21T14:25:46.341Z,51.57
2023-04-21T14:28:13.200Z,51.52
2023-04-21T14:30:39.703Z,51.56
2023-04-21T14:33:06.410Z,51.59
2023-04-21T14:35:32.963Z,51.47
2023-04-21T14:37:59.602Z,51.38
2023-04-21T14:40:26.156Z,51.26
2023-04-21T14:42:52.609Z,51.28
2023-04-21T14:45:18.998Z,51.16
2023-04-21T14:47:45.832Z,51.06
2023-04-21T14:50:12.307Z,51.00
2023-04-21T14:52:39.671Z,51.00
2023-04-21T14:55:06.574Z,50.79
2023-04-21T14:57:33.023Z,50.59
2023-04-21T15:00:00.079Z,50.49
2023-04-21T15:02:26.796Z,50.45
2023-04-21T15:04:53.427Z,50.40
2023-04-21T15:07:23.885Z,50.48
2023-04-21T15:09:51.465Z,50.67
2023-04-21T15:12:17.971Z,50.51
2023-04-21T15:14:44.391Z,50.41
2023-04-21T15:17:11.018Z,50.04
2023-04-21T15:19:37.709Z,49.79
2023-04-21T15:22:05.014Z,49.47
2023-04-21T15:24:31.756Z,49.22
2023-04-21T15:26:58.341Z,49.05
2023-04-21T15:29:24.927Z,49.37
2023-04-21T15:31:51.363Z,49.69
2023-04-21T15:34:17.750Z,50.08
2023-04-21T15:36:44.183Z,50.71
2023-04-21T15:39:13.978Z,51.04
2023-04-21T15:41:40.984Z,51.13
2023-04-21T15:44:07.497Z,51.20
2023-04-21T15:46:36.619Z,51.42
2023-04-21T15:49:03.287Z,51.24
2023-04-21T15:51:29.818Z,50.98
2023-04-21T15:53:56.279Z,50.82
2023-04-21T15:56:22.805Z,50.84
2023-04-21T15:58:49.340Z,51.02
2023-04-21T16:01:17.651Z,51.27
2023-04-21T16:03:44.353Z,51.78
2023-04-21T16:06:11.398Z,51.99
2023-04-21T16:08:37.997Z,52.31
2023-04-21T16:11:05.131Z,52.47
2023-04-21T16:13:31.815Z,52.46
2023-04-21T16:15:58.504Z,52.63
2023-04-21T16:18:25.051Z,52.53
2023-04-21T16:20:52.271Z,52.69
2023-04-21T16:23:19.422Z,52.92
2023-04-21T16:25:45.869Z,53.03
2023-04-21T16:28:12.304Z,53.36
2023-04-21T16:30:43.672Z,53.51
2023-04-21T16:33:14.442Z,53.69
2023-04-21T16:35:41.557Z,53.50
2023-04-21T16:38:08.453Z,53.58
2023-04-21T16:40:35.371Z,53.75
2023-04-21T16:43:01.921Z,53.95
2023-04-21T16:45:29.585Z,53.83
2023-04-21T16:47:57.044Z,54.15
2023-04-21T16:50:23.653Z,53.91
2023-04-21T16:52:50.211Z,54.21
2023-04-21T16:55:16.672Z,54.12
2023-04-21T16:57:43.173Z,54.28
2023-04-21T17:00:10.385Z,54.59
2023-04-21T17:02:36.963Z,54.92
2023-04-21T17:05:06.772Z,55.30
2023-04-21T17:07:34.245Z,55.65
2023-04-21T17:10:00.848Z,56.10
2023-04-21T17:12:29.609Z,56.30
2023-04-21T17:14:56.174Z,56.53
2023-04-21T17:17:22.763Z,56.83
2023-04-21T17:19:49.317Z,56.97
2023-04-21T17:22:15.838Z,57.44
2023-04-21T17:24:52.319Z,57.29
2023-04-21T17:27:20.069Z,57.71
2023-04-21T17:29:46.835Z,57.78
2023-04-21T17:32:13.378Z,57.92
2023-04-21T17:34:40.021Z,57.92
2023-04-21T17:37:06.682Z,57.85
2023-04-21T17:39:33.101Z,57.90
2023-04-21T17:42:00.241Z,58.04
2023-04-21T17:44:27.089Z,58.21
2023-04-21T17:46:53.459Z,58.37
2023-04-21T17:49:19.977Z,58.60
2023-04-21T17:51:46.443Z,58.47
2023-04-21T17:54:12.879Z,58.33
2023-04-21T17:56:40.671Z,58.39
2023-04-21T17:59:07.403Z,58.40
2023-04-21T18:01:34.012Z,58.14
2023-04-21T18:04:01.561Z,58.11
2023-04-21T18:06:28.698Z,58.25
2023-04-21T18:08:55.979Z,58.15
2023-04-21T18:11:22.664Z,58.11
2023-04-21T18:13:49.076Z,58.29
2023-04-21T18:16:15.740Z,58.39
2023-04-21T18:18:42.684Z,58.44
2023-04-21T18:21:09.330Z,58.51
2023-04-21T18:23:35.757Z,58.64
2023-04-21T18:26:02.244Z,58.90
2023-04-21T18:28:29.454Z,58.77
2023-04-21T18:30:55.993Z,59.08
2023-04-21T18:33:22.479Z,58.83
2023-04-21T18:35:49.112Z,59.13
2023-04-21T18:38:15.800Z,59.05
2023-04-21T18:40:42.416Z,58.95
2023-04-21T18:43:09.818Z,58.60
2023-04-21T18:45:36.851Z,58.91
2023-04-21T18:48:03.499Z,58.92
2023-04-21T18:53:30.056Z,59.22
2023-04-21T18:55:56.520Z,59.31
2023-04-21T18:58:23.174Z,59.25
2023-04-21T19:00:49.608Z,59.53
2023-04-21T19:03:16.171Z,59.67
2023-04-21T19:05:42.891Z,59.59
2023-04-21T19:08:09.954Z,59.55
2023-04-21T19:10:37.770Z,59.70
2023-04-21T19:13:04.646Z,59.73
2023-04-21T19:15:31.206Z,59.77
2023-04-21T19:17:57.724Z,59.57
2023-04-21T19:20:24.277Z,59.60
2023-04-21T19:22:50.874Z,59.50
2023-04-21T19:25:17.993Z,59.49
2023-04-21T19:27:44.534Z,59.58
2023-04-21T19:30:11.202Z,59.54
2023-04-21T19:32:37.790Z,59.64
2023-04-21T19:35:04.535Z,59.76
2023-04-21T19:37:33.564Z,59.94
2023-04-21T19:40:05.515Z,59.66
2023-04-21T19:42:31.968Z,59.80
2023-04-21T19:44:59.791Z,60.02
2023-04-21T19:47:26.816Z,60.13
2023-04-21T19:49:53.846Z,60.13
2023-04-21T19:52:20.312Z,60.07
2023-04-21T19:54:46.786Z,59.92
2023-04-21T19:57:13.205Z,59.92
2023-04-21T19:59:39.956Z,59.88
2023-04-21T20:02:07.179Z,59.81
2023-04-21T20:04:34.802Z,59.62
2023-04-21T20:07:01.533Z,59.59
2023-04-21T20:09:27.949Z,59.64
2023-04-21T20:11:54.414Z,59.54
2023-04-21T20:14:21.562Z,59.63
2023-04-21T20:16:48.273Z,59.49
2023-04-21T20:19:17.197Z,59.26
2023-04-21T20:21:46.722Z,59.17
2023-04-21T20:24:13.344Z,59.36
2023-04-21T20:26:39.771Z,59.09
2023-04-21T20:29:07.324Z,59.08
2023-04-21T20:31:34.315Z,58.94
2023-04-21T20:34:02.230Z,59.10
2023-04-21T20:36:28.839Z,59.17
2023-04-21T20:38:57.602Z,59.12
2023-04-21T20:41:24.125Z,59.20
2023-04-21T20:43:50.616Z,59.15
2023-04-21T20:46:18.521Z,59.42
2023-04-21T20:48:45.059Z,59.29
2023-04-21T20:51:12.255Z,59.53
2023-04-21T20:53:38.698Z,59.46
2023-04-21T20:56:05.482Z,59.44
2023-04-21T20:58:32.000Z,59.30
2023-04-21T21:00:58.393Z,59.48
2023-04-21T21:03:25.031Z,59.54
2023-04-21T21:05:51.598Z,59.92
2023-04-21T21:08:18.161Z,59.82
2023-04-21T21:10:44.628Z,59.94
2023-04-21T21:13:11.276Z,60.00
2023-04-21T21:15:37.865Z,59.95
2023-04-21T21:18:04.614Z,60.28
2023-04-21T21:20:31.117Z,59.91
2023-04-21T21:22:57.656Z,60.33
2023-04-21T21:25:24.042Z,60.37
2023-04-21T21:27:50.456Z,60.46
2023-04-21T21:30:17.220Z,60.69
2023-04-21T21:32:43.814Z,60.71
2023-04-21T21:35:11.741Z,60.97
2023-04-21T21:37:38.329Z,61.18
2023-04-21T21:40:06.419Z,61.45
2023-04-21T21:42:32.818Z,61.39
2023-04-21T21:44:59.275Z,61.37
2023-04-21T21:47:26.134Z,61.68
2023-04-21T21:49:54.924Z,61.77
2023-04-21T21:52:21.833Z,61.77
2023-04-21T21:54:49.429Z,62.00
2023-04-21T21:57:16.428Z,62.14
2023-04-21T21:59:42.938Z,62.46
2023-04-21T22:02:09.747Z,62.57
2023-04-21T22:04:36.425Z,62.76
2023-04-21T22:07:03.598Z,63.14
2023-04-21T22:09:30.074Z,63.27
2023-04-21T22:11:56.797Z,63.66
2023-04-21T22:14:24.171Z,63.89
2023-04-21T22:16:52.425Z,64.09
2023-04-21T22:19:19.113Z,64.27
2023-04-21T22:21:45.977Z,64.26
2023-04-21T22:24:12.744Z,64.61
2023-04-21T22:26:39.302Z,64.64
2023-04-21T22:29:05.921Z,64.67
2023-04-21T22:31:32.866Z,64.79
2023-04-21T22:33:59.530Z,64.92
2023-04-21T22:36:26.100Z,65.14
2023-04-21T22:38:52.442Z,65.34
2023-04-21T22:41:18.890Z,65.46
2023-04-21T22:43:45.296Z,65.60
2023-04-21T22:46:12.204Z,65.72
2023-04-21T22:48:38.586Z,65.81
2023-04-21T22:51:07.089Z,65.89
2023-04-21T22:53:36.160Z,66.13
2023-04-21T22:56:02.744Z,66.14
2023-04-21T22:58:29.204Z,66.37
2023-04-21T23:00:55.771Z,66.58
2023-04-21T23:03:23.021Z,66.58
2023-04-21T23:05:49.733Z,66.67
2023-04-21T23:08:16.151Z,66.85
2023-04-21T23:10:42.565Z,67.24
2023-04-21T23:13:08.955Z,67.47
2023-04-21T23:15:35.499Z,67.58
2023-04-21T23:18:02.017Z,67.51
2023-04-21T23:20:28.592Z,67.77
2023-04-21T23:22:55.133Z,67.83
2023-04-21T23:25:21.766Z,68.15
2023-04-21T23:27:48.243Z,68.27
2023-04-21T23:30:15.021Z,68.17
2023-04-21T23:32:41.662Z,68.37
2023-04-21T23:35:09.547Z,68.66
2023-04-21T23:37:36.097Z,68.81
2023-04-21T23:40:02.655Z,68.87
2023-04-21T23:42:29.024Z,69.02
2023-04-21T23:44:55.995Z,68.98
2023-04-21T23:47:22.546Z,69.30
2023-04-21T23:49:48.947Z,69.24
2023-04-21T23:52:15.406Z,69.43
2023-04-21T23:54:41.814Z,69.39
2023-04-21T23:57:08.316Z,69.51
2023-04-21T23:59:34.909Z,69.64
